createdAt,value
2023-10-29T00:04:48.956Z,11.00
2023-10-29T00:07:16.547Z,11.10
2023-10-29T00:09:43.977Z,11.40
2023-10-29T00:12:11.457Z,11.00
2023-10-29T00:14:38.944Z,10.60
2023-10-29T00:17:06.415Z,9.60
2023-10-29T00:19:34.058Z,8.80
2023-10-29T00:22:01.519Z,13.70
2023-10-29T00:24:29.043Z,12.20
2023-10-29T00:26:56.518Z,12.20
2023-10-29T00:29:23.966Z,9.50
2023-10-29T00:31:52.892Z,11.20
2023-10-29T00:34:20.356Z,10.10
2023-10-29T00:36:47.880Z,10.50
2023-10-29T00:39:15.417Z,9.10
2023-10-29T00:41:43.447Z,10.90
2023-10-29T00:44:11.094Z,10.10
2023-10-29T00:46:41.872Z,10.10
2023-10-29T00:49:10.195Z,9.30
2023-10-29T00:51:37.645Z,10.70
2023-10-29T00:54:05.257Z,12.30
2023-10-29T00:56:32.778Z,9.20
2023-10-29T00:59:00.232Z,13.20
2023-10-29T01:01:27.875Z,9.40
2023-10-29T01:03:56.243Z,10.70
2023-10-29T01:06:23.904Z,10.50
2023-10-29T01:08:51.841Z,9.40
2023-10-29T01:11:19.409Z,12.00
2023-10-29T01:13:46.858Z,9.20
2023-10-29T01:16:14.444Z,15.60
2023-10-29T01:18:41.896Z,9.90
2023-10-29T01:21:10.274Z,12.50
2023-10-29T01:23:37.896Z,10.30
2023-10-29T01:26:05.391Z,11.70
2023-10-29T01:28:32.922Z,10.50
2023-10-29T01:31:01.670Z,9.00
2023-10-29T01:33:29.167Z,11.10
2023-10-29T01:35:56.833Z,8.40
2023-10-29T01:38:24.320Z,9.30
2023-10-29T01:40:51.837Z,9.40
2023-10-29T01:43:19.376Z,7.90
2023-10-29T01:45:47.092Z,7.20
2023-10-29T01:48:14.813Z,11.80
2023-10-29T01:50:42.402Z,10.20
2023-10-29T01:53:09.906Z,7.50
2023-10-29T01:55:38.246Z,7.90
2023-10-29T01:58:05.850Z,9.50
2023-10-29T02:00:33.437Z,8.00
2023-10-29T02:03:01.206Z,13.20
2023-10-29T02:05:32.227Z,9.60
2023-10-29T02:07:59.767Z,7.30
2023-10-29T02:10:28.059Z,11.80
2023-10-29T02:12:55.576Z,9.80
2023-10-29T02:15:23.372Z,10.30
2023-10-29T02:17:50.935Z,7.90
2023-10-29T02:20:18.552Z,7.70
2023-10-29T02:22:46.177Z,10.00
2023-10-29T02:25:13.680Z,9.20
2023-10-29T02:27:41.165Z,7.20
2023-10-29T02:30:09.134Z,7.80
2023-10-29T02:32:36.777Z,7.70
2023-10-29T02:35:04.796Z,7.20
2023-10-29T02:37:34.908Z,7.10
2023-10-29T02:40:03.573Z,8.60
2023-10-29T02:42:31.024Z,7.40
2023-10-29T02:45:00.384Z,8.90
2023-10-29T02:47:28.022Z,7.20
2023-10-29T02:49:55.804Z,6.30
2023-10-29T02:52:23.369Z,6.00
2023-10-29T02:54:51.225Z,7.20
2023-10-29T02:57:18.881Z,9.30
2023-10-29T02:59:46.452Z,11.60
2023-10-29T03:02:14.026Z,11.20
2023-10-29T03:04:41.913Z,12.80
2023-10-29T03:07:13.133Z,9.30
2023-10-29T03:09:41.208Z,7.60
2023-10-29T03:12:08.752Z,12.60
2023-10-29T03:14:36.374Z,15.00
2023-10-29T03:17:04.207Z,8.30
2023-10-29T03:19:31.716Z,9.50
2023-10-29T03:21:59.262Z,11.80
2023-10-29T03:24:26.779Z,11.50
2023-10-29T03:26:54.821Z,8.90
2023-10-29T03:29:22.347Z,7.10
2023-10-29T03:31:49.834Z,7.20
2023-10-29T03:34:17.730Z,14.90
2023-10-29T03:36:45.264Z,14.40
2023-10-29T03:39:12.852Z,17.20
2023-10-29T03:41:40.428Z,17.50
2023-10-29T03:44:08.300Z,22.90
2023-10-29T03:46:35.813Z,15.20
2023-10-29T03:49:03.383Z,14.90
2023-10-29T03:51:31.413Z,12.00
2023-10-29T03:53:59.146Z,10.90
2023-10-29T03:56:26.684Z,12.80
2023-10-29T03:58:56.509Z,9.60
2023-10-29T04:01:28.287Z,9.00
2023-10-29T04:03:56.437Z,7.30
2023-10-29T04:06:24.492Z,10.20
2023-10-29T04:08:52.040Z,10.20
2023-10-29T04:11:19.746Z,9.10
2023-10-29T04:13:48.205Z,7.20
2023-10-29T04:16:15.708Z,9.20
2023-10-29T04:18:43.402Z,12.60
2023-10-29T04:21:10.837Z,7.50
2023-10-29T04:23:38.310Z,10.00
2023-10-29T04:26:05.795Z,16.80
2023-10-29T04:28:33.305Z,21.40
2023-10-29T04:31:01.689Z,21.40
2023-10-29T04:33:29.657Z,14.40
2023-10-29T04:35:57.541Z,16.50
2023-10-29T04:38:25.283Z,15.40
2023-10-29T04:40:53.407Z,16.30
2023-10-29T04:43:20.884Z,14.60
2023-10-29T04:45:48.909Z,19.70
2023-10-29T04:48:17.782Z,15.20
2023-10-29T04:50:45.539Z,13.40
2023-10-29T04:53:13.015Z,13.60
2023-10-29T04:55:40.492Z,15.00
2023-10-29T04:58:08.029Z,14.20
2023-10-29T05:00:35.484Z,11.30
2023-10-29T05:03:06.978Z,20.30
2023-10-29T05:05:34.662Z,14.30
2023-10-29T05:08:02.118Z,14.60
2023-10-29T05:10:30.024Z,16.40
2023-10-29T05:12:57.995Z,30.30
2023-10-29T05:15:26.176Z,30.40
2023-10-29T05:17:53.862Z,26.20
2023-10-29T05:20:21.337Z,19.70
2023-10-29T05:22:48.824Z,19.70
2023-10-29T05:25:16.492Z,11.90
2023-10-29T05:27:56.412Z,11.60
2023-10-29T05:30:24.262Z,9.20
2023-10-29T05:32:51.794Z,14.30
2023-10-29T05:35:19.491Z,11.30
2023-10-29T05:37:47.037Z,10.30
2023-10-29T05:40:14.601Z,9.40
2023-10-29T05:42:42.201Z,8.90
2023-10-29T05:45:10.454Z,16.30
2023-10-29T05:47:38.202Z,21.70
2023-10-29T05:50:07.446Z,20.30
2023-10-29T05:52:34.988Z,13.50
2023-10-29T05:55:02.935Z,13.20
2023-10-29T05:57:30.591Z,9.10
2023-10-29T05:59:58.213Z,8.20
2023-10-29T06:02:33.380Z,11.00
2023-10-29T06:05:07.398Z,13.10
2023-10-29T06:07:35.370Z,7.40
2023-10-29T06:10:02.916Z,8.70
2023-10-29T06:12:30.731Z,8.70
2023-10-29T06:14:58.320Z,10.90
2023-10-29T06:17:27.465Z,8.00
2023-10-29T06:19:55.305Z,7.20
2023-10-29T06:22:23.010Z,10.10
2023-10-29T06:24:50.800Z,8.80
2023-10-29T06:27:18.560Z,17.40
2023-10-29T06:29:46.116Z,16.80
2023-10-29T06:32:13.772Z,24.50
2023-10-29T06:34:41.237Z,20.60
2023-10-29T06:37:08.707Z,21.00
2023-10-29T06:39:36.150Z,17.20
2023-10-29T06:42:04.091Z,17.70
2023-10-29T06:44:31.591Z,18.60
2023-10-29T06:46:59.123Z,18.50
2023-10-29T06:49:27.205Z,11.20
2023-10-29T06:51:55.071Z,11.70
2023-10-29T06:54:22.747Z,10.70
2023-10-29T06:56:53.087Z,8.90
2023-10-29T06:59:20.578Z,13.60
2023-10-29T07:01:51.677Z,21.40
2023-10-29T07:04:19.362Z,19.70
2023-10-29T07:06:47.972Z,16.00
2023-10-29T07:09:18.776Z,13.40
2023-10-29T07:11:46.649Z,16.40
2023-10-29T07:14:14.942Z,18.80
2023-10-29T07:16:45.947Z,20.30
2023-10-29T07:19:14.399Z,22.10
2023-10-29T07:21:42.080Z,18.40
2023-10-29T07:24:09.963Z,15.70
2023-10-29T07:26:37.656Z,18.30
2023-10-29T07:29:05.225Z,19.90
2023-10-29T07:31:32.668Z,14.60
2023-10-29T07:34:00.168Z,20.10
2023-10-29T07:36:27.825Z,16.00
2023-10-29T07:38:55.514Z,13.70
2023-10-29T07:41:23.434Z,14.20
2023-10-29T07:43:52.935Z,14.70
2023-10-29T07:46:21.787Z,17.60
2023-10-29T07:48:49.264Z,12.80
2023-10-29T07:51:16.740Z,14.00
2023-10-29T07:53:47.475Z,15.90
2023-10-29T07:56:15.210Z,16.30
2023-10-29T07:58:42.971Z,14.10
2023-10-29T08:01:14.508Z,15.40
2023-10-29T08:03:42.617Z,13.10
2023-10-29T08:06:11.270Z,14.70
2023-10-29T08:08:39.526Z,17.40
2023-10-29T08:11:07.590Z,13.90
2023-10-29T08:13:35.098Z,22.80
2023-10-29T08:16:04.302Z,13.40
2023-10-29T08:18:32.059Z,16.00
2023-10-29T08:21:03.451Z,14.60
2023-10-29T08:23:32.837Z,12.80
2023-10-29T08:26:00.381Z,13.90
2023-10-29T08:28:29.288Z,16.30
2023-10-29T08:31:00.335Z,18.30
2023-10-29T08:33:27.976Z,14.00
2023-10-29T08:35:55.788Z,14.90
2023-10-29T08:38:23.421Z,14.30
2023-10-29T08:40:50.973Z,15.80
2023-10-29T08:43:18.539Z,22.20
2023-10-29T08:45:46.139Z,14.00
2023-10-29T08:48:13.850Z,16.20
2023-10-29T08:50:44.570Z,18.90
2023-10-29T08:53:12.164Z,15.60
2023-10-29T08:55:39.720Z,14.70
2023-10-29T08:58:07.695Z,16.30
2023-10-29T09:00:45.865Z,16.90
2023-10-29T09:03:15.371Z,15.20
2023-10-29T09:05:44.517Z,15.70
2023-10-29T09:08:14.173Z,23.30
2023-10-29T09:10:46.893Z,14.90
2023-10-29T09:13:14.641Z,14.30
2023-10-29T09:15:43.361Z,15.60
2023-10-29T09:18:11.068Z,14.10
2023-10-29T09:20:40.181Z,12.60
2023-10-29T09:23:07.774Z,16.60
2023-10-29T09:25:35.351Z,14.70
2023-10-29T09:28:07.202Z,15.50
2023-10-29T09:30:34.760Z,17.60
2023-10-29T09:33:03.069Z,13.00
2023-10-29T09:35:31.145Z,13.20
2023-10-29T09:37:58.791Z,16.80
2023-10-29T09:40:26.749Z,13.90
2023-10-29T09:42:55.356Z,17.20
2023-10-29T09:45:27.405Z,18.60
2023-10-29T09:47:55.175Z,12.40
2023-10-29T09:50:25.652Z,11.40
2023-10-29T09:52:54.298Z,11.30
2023-10-29T09:55:22.252Z,13.20
2023-10-29T09:57:50.375Z,12.60
2023-10-29T10:00:18.066Z,9.10
2023-10-29T10:02:59.545Z,12.20
2023-10-29T10:05:29.401Z,9.60
2023-10-29T10:07:57.586Z,8.70
2023-10-29T10:10:43.465Z,12.20
2023-10-29T10:13:11.650Z,11.60
2023-10-29T10:15:39.307Z,11.80
2023-10-29T10:18:07.265Z,10.40
2023-10-29T10:20:35.295Z,9.60
2023-10-29T10:23:04.240Z,14.80
2023-10-29T10:25:32.749Z,9.90
2023-10-29T10:28:00.941Z,11.90
2023-10-29T10:30:31.740Z,8.30
2023-10-29T10:33:12.688Z,8.20
2023-10-29T10:35:48.070Z,10.70
2023-10-29T10:38:16.294Z,9.30
2023-10-29T10:40:45.918Z,8.00
2023-10-29T10:43:18.930Z,8.00
2023-10-29T10:45:51.404Z,13.60
2023-10-29T10:48:19.383Z,9.90
2023-10-29T10:50:47.706Z,12.90
2023-10-29T10:53:15.637Z,13.40
2023-10-29T10:56:01.351Z,9.90
2023-10-29T10:58:31.035Z,11.40
2023-10-29T11:00:58.794Z,9.10
2023-10-29T11:05:59.321Z,11.50
2023-10-29T11:08:27.004Z,9.80
2023-10-29T11:10:58.803Z,11.20
2023-10-29T11:13:28.164Z,7.70
2023-10-29T11:15:56.875Z,6.70
2023-10-29T11:18:31.739Z,9.60
2023-10-29T11:21:04.983Z,8.10
2023-10-29T11:23:33.996Z,10.20
2023-10-29T11:26:21.410Z,9.60
2023-10-29T11:28:54.191Z,7.50
2023-10-29T11:31:23.006Z,7.60
2023-10-29T11:33:56.927Z,7.50
2023-10-29T11:36:36.637Z,7.90
2023-10-29T11:39:16.741Z,10.10
2023-10-29T11:41:45.748Z,8.10
2023-10-29T11:44:23.384Z,10.50
2023-10-29T11:46:57.482Z,13.20
2023-10-29T11:49:26.086Z,10.80
2023-10-29T11:52:03.428Z,12.10
2023-10-29T11:54:33.580Z,8.70
2023-10-29T11:57:01.605Z,7.60
2023-10-29T11:59:29.236Z,7.00
2023-10-29T12:01:56.798Z,13.10
2023-10-29T12:04:33.599Z,10.10
2023-10-29T12:07:01.567Z,11.50
2023-10-29T12:09:29.218Z,6.50
2023-10-29T12:11:57.488Z,7.60
2023-10-29T12:14:38.871Z,8.50
2023-10-29T12:17:07.767Z,9.60
2023-10-29T12:19:39.367Z,10.10
2023-10-29T12:22:23.883Z,9.10
2023-10-29T12:24:54.919Z,12.40
2023-10-29T12:27:25.615Z,9.00
2023-10-29T12:29:56.545Z,8.50
2023-10-29T12:32:27.804Z,9.00
2023-10-29T12:34:57.781Z,8.90
2023-10-29T12:37:29.186Z,8.10
2023-10-29T12:40:03.266Z,9.50
2023-10-29T12:43:06.531Z,19.20
2023-10-29T12:45:34.109Z,11.00
2023-10-29T12:48:11.225Z,12.60
2023-10-29T12:50:52.257Z,7.50
2023-10-29T12:53:27.095Z,7.70
2023-10-29T12:55:55.105Z,11.70
2023-10-29T12:58:22.823Z,10.10
2023-10-29T13:00:53.011Z,8.20
2023-10-29T13:03:22.932Z,9.00
2023-10-29T13:05:50.681Z,5.30
2023-10-29T13:08:18.913Z,8.00
2023-10-29T13:10:47.808Z,8.50
2023-10-29T13:13:16.930Z,6.70
2023-10-29T13:15:44.973Z,9.20
2023-10-29T13:18:12.805Z,8.30
2023-10-29T13:20:40.707Z,9.30
2023-10-29T13:23:09.086Z,13.80
2023-10-29T13:25:36.894Z,11.60
2023-10-29T13:28:05.444Z,8.60
2023-10-29T13:30:33.515Z,9.70
2023-10-29T13:33:01.179Z,10.80
2023-10-29T13:35:28.840Z,9.20
2023-10-29T13:37:56.921Z,8.20
2023-10-29T13:40:24.482Z,11.00
2023-10-29T13:42:52.247Z,11.60
2023-10-29T13:45:20.143Z,11.10
2023-10-29T13:47:47.892Z,9.20
2023-10-29T13:50:15.697Z,11.60
2023-10-29T13:52:43.201Z,10.20
2023-10-29T13:55:11.172Z,11.20
2023-10-29T13:57:38.836Z,10.20
2023-10-29T14:00:10.289Z,10.40
2023-10-29T14:02:40.903Z,18.50
2023-10-29T14:05:08.693Z,20.50
2023-10-29T14:07:36.864Z,18.10
2023-10-29T14:10:05.367Z,26.40
2023-10-29T14:12:34.460Z,25.50
2023-10-29T14:15:03.184Z,24.20
2023-10-29T14:17:30.958Z,17.10
2023-10-29T14:19:58.873Z,21.20
2023-10-29T14:22:26.999Z,20.20
2023-10-29T14:24:55.222Z,22.00
2023-10-29T14:27:24.059Z,19.70
2023-10-29T14:29:51.959Z,17.30
2023-10-29T14:32:19.900Z,17.10
2023-10-29T14:34:47.823Z,17.50
2023-10-29T14:37:17.057Z,15.50
2023-10-29T14:39:48.432Z,15.40
2023-10-29T14:42:16.082Z,18.20
2023-10-29T14:44:45.875Z,17.00
2023-10-29T14:47:13.610Z,18.10
2023-10-29T14:49:41.073Z,19.00
2023-10-29T14:52:08.893Z,20.50
2023-10-29T14:54:36.641Z,18.20
2023-10-29T14:57:17.892Z,17.10
2023-10-29T14:59:46.380Z,18.40
2023-10-29T15:02:13.880Z,35.20
2023-10-29T15:04:44.678Z,75.60
2023-10-29T15:07:12.154Z,80.80
2023-10-29T15:09:39.640Z,55.40
2023-10-29T15:12:08.663Z,43.10
2023-10-29T15:14:39.281Z,34.20
2023-10-29T15:17:06.777Z,28.60
2023-10-29T15:19:37.312Z,33.00
2023-10-29T15:22:05.453Z,28.60
2023-10-29T15:24:36.127Z,29.70
2023-10-29T15:27:04.046Z,25.00
2023-10-29T15:29:31.561Z,29.60
2023-10-29T15:31:59.957Z,28.00
2023-10-29T15:34:27.505Z,35.00
2023-10-29T15:36:54.961Z,24.80
2023-10-29T15:39:22.667Z,28.10
2023-10-29T15:41:50.461Z,26.00
2023-10-29T15:44:18.549Z,23.10
2023-10-29T15:46:46.109Z,32.70
2023-10-29T15:49:16.854Z,56.60
2023-10-29T15:51:44.550Z,38.50
2023-10-29T15:54:12.189Z,27.90
2023-10-29T15:56:39.757Z,26.70
2023-10-29T15:59:08.894Z,25.30
2023-10-29T16:01:37.241Z,21.90
2023-10-29T16:04:05.511Z,21.70
2023-10-29T16:06:32.982Z,26.20
2023-10-29T16:09:00.489Z,25.50
2023-10-29T16:11:27.939Z,25.30
2023-10-29T16:13:55.473Z,25.80
2023-10-29T16:16:23.068Z,26.00
2023-10-29T16:18:51.103Z,32.60
2023-10-29T16:21:18.674Z,29.10
2023-10-29T16:23:46.190Z,32.70
2023-10-29T16:26:13.953Z,30.60
2023-10-29T16:28:41.560Z,30.80
2023-10-29T16:31:19.935Z,31.10
2023-10-29T16:33:48.692Z,29.30
2023-10-29T16:36:17.748Z,32.60
2023-10-29T16:38:45.836Z,30.90
2023-10-29T16:41:18.449Z,30.20
2023-10-29T16:43:49.296Z,32.60
2023-10-29T16:46:21.810Z,31.00
2023-10-29T16:48:49.671Z,32.60
2023-10-29T16:51:17.444Z,30.60
2023-10-29T16:53:44.960Z,33.40
2023-10-29T16:56:13.696Z,51.20
2023-10-29T16:58:43.697Z,37.20
2023-10-29T17:01:13.647Z,40.10
2023-10-29T17:06:58.565Z,32.50
2023-10-29T17:09:30.065Z,25.40
2023-10-29T17:11:57.837Z,32.10
2023-10-29T17:14:25.451Z,30.30
2023-10-29T17:16:52.956Z,36.80
2023-10-29T17:19:20.804Z,36.20
2023-10-29T17:21:48.733Z,35.70
2023-10-29T17:24:16.341Z,35.60
2023-10-29T17:26:44.110Z,35.40
2023-10-29T17:29:12.110Z,34.50
2023-10-29T17:31:39.894Z,34.50
2023-10-29T17:34:11.075Z,37.30
2023-10-29T17:36:39.065Z,37.00
2023-10-29T17:39:06.947Z,32.10
2023-10-29T17:41:34.584Z,34.40
2023-10-29T17:44:02.196Z,37.80
2023-10-29T17:46:29.806Z,35.10
2023-10-29T17:48:57.330Z,34.90
2023-10-29T17:51:24.933Z,36.70
2023-10-29T17:53:54.339Z,38.40
2023-10-29T17:56:21.978Z,35.50
2023-10-29T17:58:50.004Z,39.60
2023-10-29T18:01:17.712Z,50.70
2023-10-29T18:03:48.036Z,50.10
2023-10-29T18:06:20.402Z,46.70
2023-10-29T18:08:49.099Z,38.30
2023-10-29T18:11:19.121Z,38.10
2023-10-29T18:16:14.840Z,37.20
2023-10-29T18:18:42.403Z,37.20
2023-10-29T18:21:10.106Z,34.90
2023-10-29T18:23:37.706Z,35.00
2023-10-29T18:26:05.499Z,42.50
2023-10-29T18:28:33.120Z,36.30
2023-10-29T18:31:05.558Z,43.60
2023-10-29T18:33:33.282Z,41.10
2023-10-29T18:36:08.719Z,41.50
2023-10-29T18:38:36.826Z,40.30
2023-10-29T18:41:12.338Z,40.10
2023-10-29T18:43:40.033Z,40.80
2023-10-29T18:46:11.708Z,39.30
2023-10-29T18:48:39.340Z,41.70
2023-10-29T18:51:07.115Z,38.30
2023-10-29T18:53:34.737Z,45.00
2023-10-29T18:56:03.957Z,41.50
2023-10-29T18:58:31.656Z,47.10
2023-10-29T19:01:09.552Z,44.90
2023-10-29T19:03:37.393Z,44.70
2023-10-29T19:06:09.423Z,46.30
2023-10-29T19:08:38.303Z,40.20
2023-10-29T19:11:10.330Z,44.60
2023-10-29T19:14:03.666Z,43.90
2023-10-29T19:16:31.428Z,40.70
2023-10-29T19:18:58.917Z,50.40
2023-10-29T19:21:26.713Z,47.30
2023-10-29T19:23:54.333Z,46.40
2023-10-29T19:26:21.986Z,35.70
2023-10-29T19:28:49.483Z,40.80
2023-10-29T19:31:25.633Z,41.30
2023-10-29T19:33:55.731Z,41.70
2023-10-29T19:36:26.806Z,40.00
2023-10-29T19:38:54.407Z,42.30
2023-10-29T19:41:21.977Z,39.40
2023-10-29T19:43:49.500Z,41.50
2023-10-29T19:46:17.079Z,31.30
2023-10-29T19:48:44.613Z,36.10
2023-10-29T19:51:12.225Z,35.20
2023-10-29T19:53:39.857Z,39.20
2023-10-29T19:56:16.950Z,29.70
2023-10-29T19:58:44.650Z,28.20
2023-10-29T20:01:12.195Z,34.50
2023-10-29T20:03:42.658Z,32.30
2023-10-29T20:06:11.300Z,29.30
2023-10-29T20:08:39.941Z,33.60
2023-10-29T20:11:09.897Z,28.50
2023-10-29T20:13:42.124Z,31.10
2023-10-29T20:16:13.245Z,27.50
2023-10-29T20:18:40.951Z,28.00
2023-10-29T20:21:19.977Z,25.00
2023-10-29T20:23:52.323Z,29.20
2023-10-29T20:26:20.761Z,25.70
2023-10-29T20:28:52.180Z,26.00
2023-10-29T20:31:19.915Z,28.30
2023-10-29T20:33:47.853Z,23.30
2023-10-29T20:36:15.811Z,23.10
2023-10-29T20:38:43.569Z,31.00
2023-10-29T20:41:11.152Z,27.50
2023-10-29T20:43:39.144Z,24.80
2023-10-29T20:46:06.857Z,25.80
2023-10-29T20:48:35.165Z,26.90
2023-10-29T20:51:02.834Z,22.20
2023-10-29T20:53:30.540Z,23.00
2023-10-29T20:55:58.055Z,22.00
2023-10-29T20:58:25.609Z,21.30
2023-10-29T21:00:53.153Z,27.40
2023-10-29T21:03:21.287Z,18.80
2023-10-29T21:05:56.979Z,22.60
2023-10-29T21:08:25.527Z,20.90
2023-10-29T21:11:02.729Z,19.30
2023-10-29T21:13:30.444Z,23.40
2023-10-29T21:16:01.282Z,17.30
2023-10-29T21:18:30.490Z,18.60
2023-10-29T21:21:03.209Z,16.70
2023-10-29T21:23:31.270Z,15.40
2023-10-29T21:25:59.050Z,13.50
2023-10-29T21:28:29.944Z,15.70
2023-10-29T21:30:57.767Z,14.80
2023-10-29T21:33:25.289Z,18.80
2023-10-29T21:35:53.274Z,17.90
2023-10-29T21:38:20.737Z,17.70
2023-10-29T21:40:48.304Z,15.30
2023-10-29T21:43:15.928Z,19.30
2023-10-29T21:45:43.517Z,18.90
2023-10-29T21:48:11.754Z,15.10
2023-10-29T21:50:42.497Z,19.10
2023-10-29T21:53:10.623Z,17.80
2023-10-29T21:55:41.339Z,17.40
2023-10-29T21:58:11.376Z,23.10
2023-10-29T22:00:39.022Z,22.40
2023-10-29T22:03:06.803Z,22.90
2023-10-29T22:05:34.396Z,20.90
2023-10-29T22:08:02.128Z,23.20
2023-10-29T22:10:29.811Z,18.10
2023-10-29T22:12:57.378Z,23.10
2023-10-29T22:15:29.393Z,20.00
2023-10-29T22:17:57.228Z,24.80
2023-10-29T22:20:25.512Z,21.30
2023-10-29T22:22:53.043Z,23.00
2023-10-29T22:25:20.817Z,18.90
2023-10-29T22:27:48.367Z,21.00
2023-10-29T22:30:16.209Z,18.90
2023-10-29T22:32:43.794Z,17.30
2023-10-29T22:35:11.802Z,17.30
2023-10-29T22:37:39.360Z,20.60
2023-10-29T22:40:10.739Z,18.90
2023-10-29T22:42:38.240Z,20.10
2023-10-29T22:45:06.229Z,18.80
2023-10-29T22:47:34.119Z,20.60
2023-10-29T22:50:01.936Z,20.90
2023-10-29T22:52:29.434Z,20.60
2023-10-29T22:54:57.666Z,18.90
2023-10-29T22:57:25.252Z,21.20
2023-10-29T22:59:52.894Z,18.00
2023-10-29T23:02:20.443Z,20.80
2023-10-29T23:04:47.980Z,14.40
2023-10-29T23:07:15.433Z,19.90
2023-10-29T23:09:42.982Z,18.70
2023-10-29T23:12:10.518Z,17.30
2023-10-29T23:14:38.077Z,17.40
2023-10-29T23:17:05.588Z,17.60
2023-10-29T23:19:33.043Z,22.70
2023-10-29T23:22:00.483Z,19.90
2023-10-29T23:24:27.948Z,24.40
2023-10-29T23:26:55.550Z,20.80
2023-10-29T23:29:23.949Z,21.40
2023-10-29T23:31:51.554Z,16.10
2023-10-29T23:34:19.094Z,18.60
2023-10-29T23:36:46.521Z,21.70
2023-10-29T23:39:14.065Z,18.10
2023-10-29T23:41:41.556Z,20.20
2023-10-29T23:44:09.113Z,22.30
2023-10-29T23:46:36.693Z,21.00
2023-10-29T23:49:04.330Z,17.70
2023-10-29T23:51:31.869Z,16.90
2023-10-29T23:53:59.437Z,20.00
2023-10-29T23:56:27.031Z,17.40
2023-10-29T23:58:54.478Z,22.30
